Time;durP1;ratioP1;P1;durP2;ratioP2;P2;SDS_P1;SDS_P2;PMS_P1;PMS_P2;Temp;Humidity;BMP_temperature;BMP_pressure;BME280_temperature;BME280_humidity;BME280_pressure;Samples;Min_cycle;Max_cycle;Signal;HPM_P1;HPM_P2
2022/12/02 00:00:46;;;;;;;20.00;18.00;;;;;;;;;;5141309;27;20304;-65
2022/12/02 00:03:17;;;;;;;20.15;18.05;;;;;;;;;;5141039;27;20226;-65
2022/12/02 00:05:48;;;;;;;19.15;17.15;;;;;;;;;;5140915;27;20202;-66
2022/12/02 00:08:18;;;;;;;18.23;16.30;;;;;;;;;;5139810;27;20198;-66
2022/12/02 00:10:46;;;;;;;18.27;16.35;;;;;;;;;;5139294;27;20599;-65
2022/12/02 00:13:19;;;;;;;17.27;15.43;;;;;;;;;;5139280;27;20285;-66
2022/12/02 00:15:48;;;;;;;17.20;15.60;;;;;;;;;;5141136;27;20210;-67
2022/12/02 00:18:17;;;;;;;17.17;14.80;;;;;;;;;;5140931;27;20213;-65
2022/12/02 00:20:45;;;;;;;15.07;13.68;;;;;;;;;;5140625;27;20202;-66
2022/12/02 00:23:13;;;;;;;15.82;14.23;;;;;;;;;;5139096;27;20226;-65
2022/12/02 00:25:41;;;;;;;15.05;13.65;;;;;;;;;;5139119;27;20271;-66
2022/12/02 00:28:09;;;;;;;14.98;13.48;;;;;;;;;;5140381;27;20217;-65
2022/12/02 00:30:36;;;;;;;14.95;13.45;;;;;;;;;;5140326;27;20210;-65
2022/12/02 00:33:06;;;;;;;13.80;12.40;;;;;;;;;;5140403;27;20199;-66
2022/12/02 00:35:33;;;;;;;14.77;13.25;;;;;;;;;;5138576;27;20220;-65
2022/12/02 00:38:01;;;;;;;14.07;12.57;;;;;;;;;;5139598;27;20297;-66
2022/12/02 00:40:29;;;;;;;13.18;11.88;;;;;;;;;;5140752;27;20245;-66
2022/12/02 00:46:30;;;;;;;14.27;12.88;;;;;;;;;;5140431;27;20609;-66
2022/12/02 00:48:31;;;;;;;12.38;11.18;;;;;;;;;;5119747;28;20194;-66
2022/12/02 00:50:59;;;;;;;12.60;11.30;;;;;;;;;;5119549;28;20254;-65
2022/12/02 00:53:27;;;;;;;12.00;10.80;;;;;;;;;;5122445;27;20483;-65
2022/12/02 00:55:54;;;;;;;12.30;11.10;;;;;;;;;;5140660;27;20570;-65
2022/12/02 00:58:22;;;;;;;12.15;10.95;;;;;;;;;;5140359;27;20202;-65
2022/12/02 01:00:50;;;;;;;11.60;10.40;;;;;;;;;;5140297;27;20712;-66
2022/12/02 01:03:18;;;;;;;11.30;10.20;;;;;;;;;;5139889;27;20229;-65
2022/12/02 01:05:47;;;;;;;11.07;9.98;;;;;;;;;;5139875;27;20198;-65
2022/12/02 01:08:15;;;;;;;10.85;9.77;;;;;;;;;;5139749;27;20207;-65
2022/12/02 01:10:42;;;;;;;11.38;10.13;;;;;;;;;;5140149;27;20214;-66
2022/12/02 01:13:10;;;;;;;10.63;9.52;;;;;;;;;;5139806;27;20289;-66
2022/12/02 01:15:38;;;;;;;10.90;9.80;;;;;;;;;;5139603;27;20201;-65
2022/12/02 01:18:06;;;;;;;10.80;9.80;;;;;;;;;;5140353;27;20314;-65
2022/12/02 01:20:34;;;;;;;10.27;9.25;;;;;;;;;;5140015;27;20210;-65
2022/12/02 01:23:03;;;;;;;9.43;8.63;;;;;;;;;;5139801;27;20234;-65
2022/12/02 01:25:31;;;;;;;10.30;9.25;;;;;;;;;;5139169;27;20212;-66
2022/12/02 01:27:58;;;;;;;9.38;8.48;;;;;;;;;;5140047;27;20202;-65
2022/12/02 01:30:26;;;;;;;9.23;8.30;;;;;;;;;;5139984;27;20210;-66
2022/12/02 01:32:54;;;;;;;9.55;8.65;;;;;;;;;;5139795;27;20573;-66
2022/12/02 01:35:22;;;;;;;8.82;8.00;;;;;;;;;;5130875;27;20511;-66
2022/12/02 01:37:50;;;;;;;8.77;7.97;;;;;;;;;;5139786;27;20228;-66
2022/12/02 01:40:19;;;;;;;8.52;7.70;;;;;;;;;;5139765;27;20210;-66
2022/12/02 01:42:48;;;;;;;9.27;8.38;;;;;;;;;;5139780;27;20316;-66
2022/12/02 01:45:16;;;;;;;8.85;8.05;;;;;;;;;;5133744;27;20601;-66
2022/12/02 01:47:44;;;;;;;8.43;7.63;;;;;;;;;;5139666;27;20210;-65
2022/12/02 01:50:12;;;;;;;8.63;7.78;;;;;;;;;;5139588;27;20263;-65
2022/12/02 01:52:40;;;;;;;8.13;7.43;;;;;;;;;;5139757;27;20199;-66
2022/12/02 01:55:11;;;;;;;8.15;7.38;;;;;;;;;;5138921;27;20259;-66
2022/12/02 01:57:41;;;;;;;7.78;7.07;;;;;;;;;;5138795;27;20206;-65
2022/12/02 02:00:09;;;;;;;8.60;7.80;;;;;;;;;;5139376;27;20202;-66
2022/12/02 02:02:39;;;;;;;7.80;7.10;;;;;;;;;;5139402;27;20226;-66
2022/12/02 02:05:08;;;;;;;7.80;7.10;;;;;;;;;;5138459;27;20195;-66
2022/12/02 02:07:36;;;;;;;7.43;6.75;;;;;;;;;;5139144;27;20210;-67
2022/12/02 02:10:05;;;;;;;8.05;7.35;;;;;;;;;;5139544;27;20717;-66
2022/12/02 02:12:33;;;;;;;7.47;6.78;;;;;;;;;;5139298;27;20198;-66
2022/12/02 02:15:02;;;;;;;7.97;7.28;;;;;;;;;;5137958;27;20198;-66
2022/12/02 02:17:30;;;;;;;7.50;6.80;;;;;;;;;;5138927;27;20574;-66
2022/12/02 02:19:58;;;;;;;7.10;6.50;;;;;;;;;;5138195;27;20277;-66
2022/12/02 02:22:27;;;;;;;7.78;7.07;;;;;;;;;;5138777;27;20234;-66
2022/12/02 02:24:57;;;;;;;7.32;6.63;;;;;;;;;;5138152;27;20198;-66
2022/12/02 02:27:24;;;;;;;7.50;6.80;;;;;;;;;;5138860;27;20305;-66
2022/12/02 02:29:52;;;;;;;6.90;6.30;;;;;;;;;;5138446;27;20210;-66
2022/12/02 02:32:20;;;;;;;6.55;5.95;;;;;;;;;;5138995;27;20480;-66
2022/12/02 02:34:48;;;;;;;7.40;6.70;;;;;;;;;;5138162;27;20198;-66
2022/12/02 02:37:16;;;;;;;6.50;5.97;;;;;;;;;;5138809;27;20215;-66
2022/12/02 02:39:43;;;;;;;6.63;6.03;;;;;;;;;;5138926;27;20547;-66
2022/12/02 02:42:12;;;;;;;6.60;6.00;;;;;;;;;;5138642;27;20296;-66
2022/12/02 02:44:40;;;;;;;6.60;6.10;;;;;;;;;;5137786;27;20284;-66
2022/12/02 02:47:08;;;;;;;6.40;5.90;;;;;;;;;;5138300;27;20209;-66
2022/12/02 02:49:36;;;;;;;6.75;6.15;;;;;;;;;;5137822;27;20267;-66
2022/12/02 02:52:04;;;;;;;6.43;5.80;;;;;;;;;;5138331;27;20202;-65
2022/12/02 02:54:32;;;;;;;6.35;5.85;;;;;;;;;;5137829;27;20656;-65
2022/12/02 02:57:00;;;;;;;6.57;5.97;;;;;;;;;;5137918;28;20209;-66
2022/12/02 02:59:29;;;;;;;6.38;5.78;;;;;;;;;;5137275;28;20194;-65
2022/12/02 03:01:56;;;;;;;6.22;5.72;;;;;;;;;;5137412;28;20210;-66
2022/12/02 03:04:26;;;;;;;6.10;5.60;;;;;;;;;;5137362;28;20269;-66
2022/12/02 03:06:54;;;;;;;6.20;5.70;;;;;;;;;;5138330;28;20210;-66
2022/12/02 03:09:23;;;;;;;6.18;5.68;;;;;;;;;;5138155;27;20317;-65
2022/12/02 03:11:52;;;;;;;6.10;5.53;;;;;;;;;;5138065;27;20267;-66
2022/12/02 03:14:21;;;;;;;6.45;5.85;;;;;;;;;;5137977;28;20536;-66
2022/12/02 03:16:50;;;;;;;6.15;5.65;;;;;;;;;;5138367;28;20202;-66
2022/12/02 03:19:19;;;;;;;6.18;5.68;;;;;;;;;;5138293;28;20202;-66
2022/12/02 03:21:47;;;;;;;6.13;5.53;;;;;;;;;;5137712;28;20202;-66
2022/12/02 03:24:15;;;;;;;5.30;4.90;;;;;;;;;;5137561;28;20257;-66
2022/12/02 03:26:43;;;;;;;6.03;5.53;;;;;;;;;;5138143;28;20256;-66
2022/12/02 03:29:11;;;;;;;6.05;5.45;;;;;;;;;;5138368;28;20554;-66
2022/12/02 03:31:39;;;;;;;5.90;5.40;;;;;;;;;;5137866;27;20569;-65
2022/12/02 03:34:09;;;;;;;5.72;5.22;;;;;;;;;;5137501;28;20208;-65
2022/12/02 03:36:37;;;;;;;6.63;6.03;;;;;;;;;;5138104;28;20202;-66
2022/12/02 03:39:05;;;;;;;5.65;5.15;;;;;;;;;;5137957;28;20202;-66
2022/12/02 03:41:32;;;;;;;6.22;5.72;;;;;;;;;;5137990;28;20202;-65
2022/12/02 03:44:00;;;;;;;6.07;5.57;;;;;;;;;;5136554;27;20219;-66
2022/12/02 03:46:29;;;;;;;5.68;5.18;;;;;;;;;;5137809;28;20202;-66
2022/12/02 03:48:57;;;;;;;5.78;5.28;;;;;;;;;;5137689;28;20202;-66
2022/12/02 03:51:26;;;;;;;5.88;5.38;;;;;;;;;;5137866;28;20203;-65
2022/12/02 03:53:54;;;;;;;5.72;5.22;;;;;;;;;;5137136;28;20195;-66
2022/12/02 03:56:22;;;;;;;5.63;5.13;;;;;;;;;;5129725;28;20206;-66
2022/12/02 03:58:51;;;;;;;5.70;5.20;;;;;;;;;;5137890;28;20554;-65
2022/12/02 04:01:19;;;;;;;5.35;4.95;;;;;;;;;;5139924;27;20224;-66
2022/12/02 04:03:47;;;;;;;6.25;5.65;;;;;;;;;;5140271;27;20253;-66
2022/12/02 04:06:15;;;;;;;5.63;5.13;;;;;;;;;;5141525;27;20210;-66
2022/12/02 04:08:44;;;;;;;6.10;5.60;;;;;;;;;;5141836;27;20203;-65
2022/12/02 04:11:12;;;;;;;5.72;5.22;;;;;;;;;;5141675;27;20572;-65
2022/12/02 04:13:40;;;;;;;5.60;5.10;;;;;;;;;;5141056;27;20585;-66
2022/12/02 04:16:08;;;;;;;5.88;5.38;;;;;;;;;;5141179;27;20616;-66
2022/12/02 04:18:35;;;;;;;5.85;5.35;;;;;;;;;;5141204;27;20611;-65
2022/12/02 04:21:03;;;;;;;5.75;5.25;;;;;;;;;;5140936;27;20270;-66
2022/12/02 04:23:31;;;;;;;6.00;5.45;;;;;;;;;;5126680;27;20262;-66
2022/12/02 04:26:00;;;;;;;6.10;5.60;;;;;;;;;;5138030;27;20309;-66
2022/12/02 04:28:28;;;;;;;5.68;5.18;;;;;;;;;;5140938;27;20293;-65
2022/12/02 04:30:55;;;;;;;6.20;5.70;;;;;;;;;;5140545;27;20202;-66
2022/12/02 04:33:23;;;;;;;5.75;5.15;;;;;;;;;;5140245;27;20273;-66
2022/12/02 04:35:51;;;;;;;6.07;5.57;;;;;;;;;;5140988;27;20258;-66
2022/12/02 04:38:18;;;;;;;5.70;5.20;;;;;;;;;;5140469;27;20206;-65
2022/12/02 04:40:46;;;;;;;5.53;5.03;;;;;;;;;;5140725;27;20210;-65
2022/12/02 04:43:15;;;;;;;6.35;5.80;;;;;;;;;;5132166;27;20232;-65
2022/12/02 04:45:43;;;;;;;5.75;5.25;;;;;;;;;;5140527;27;20202;-65
2022/12/02 04:48:11;;;;;;;5.25;4.85;;;;;;;;;;5140412;27;20267;-66
2022/12/02 04:50:39;;;;;;;5.60;5.10;;;;;;;;;;5140476;27;20257;-66
2022/12/02 04:53:07;;;;;;;5.93;5.43;;;;;;;;;;5139102;27;20191;-66
2022/12/02 04:55:35;;;;;;;5.85;5.35;;;;;;;;;;5140292;27;20289;-65
2022/12/02 04:58:02;;;;;;;5.80;5.30;;;;;;;;;;5140100;27;20276;-65
2022/12/02 05:00:31;;;;;;;5.75;5.25;;;;;;;;;;5139351;27;20284;-66
2022/12/02 05:02:58;;;;;;;5.75;5.25;;;;;;;;;;5139268;27;20201;-65
2022/12/02 05:05:26;;;;;;;5.50;5.00;;;;;;;;;;5139892;27;20202;-65
2022/12/02 05:07:53;;;;;;;5.50;5.00;;;;;;;;;;5139772;27;20206;-65
2022/12/02 05:10:21;;;;;;;5.75;5.25;;;;;;;;;;5139595;27;20211;-66
2022/12/02 05:12:48;;;;;;;5.30;4.88;;;;;;;;;;5138900;27;20208;-66
2022/12/02 05:15:16;;;;;;;6.03;5.53;;;;;;;;;;5139100;27;20194;-65
2022/12/02 05:17:44;;;;;;;6.22;5.63;;;;;;;;;;5139293;27;20600;-65
2022/12/02 05:20:13;;;;;;;5.38;4.95;;;;;;;;;;5139869;27;20209;-65
2022/12/02 05:22:43;;;;;;;5.90;5.40;;;;;;;;;;5137688;27;20195;-65
2022/12/02 05:25:10;;;;;;;5.90;5.40;;;;;;;;;;5139360;27;20222;-65
2022/12/02 05:27:37;;;;;;;5.70;5.20;;;;;;;;;;5139336;27;20292;-66
2022/12/02 05:30:05;;;;;;;5.80;5.30;;;;;;;;;;5139522;27;20213;-65
2022/12/02 05:32:33;;;;;;;5.50;5.03;;;;;;;;;;5138583;27;20492;-65
2022/12/02 05:35:02;;;;;;;6.07;5.57;;;;;;;;;;5139635;27;20449;-66
2022/12/02 05:37:30;;;;;;;5.45;5.00;;;;;;;;;;5138541;27;20599;-66
2022/12/02 05:39:57;;;;;;;5.95;5.45;;;;;;;;;;5139152;27;20203;-65
2022/12/02 05:42:24;;;;;;;6.13;5.63;;;;;;;;;;5138154;27;20202;-66
2022/12/02 05:44:52;;;;;;;6.30;5.70;;;;;;;;;;5138761;27;20210;-65
2022/12/02 05:47:20;;;;;;;5.30;4.90;;;;;;;;;;5138048;27;20202;-66
2022/12/02 05:49:47;;;;;;;5.45;4.95;;;;;;;;;;5138086;27;20210;-65
2022/12/02 05:52:21;;;;;;;5.82;5.32;;;;;;;;;;5137493;27;20216;-67
2022/12/02 05:54:48;;;;;;;5.82;5.32;;;;;;;;;;5137818;27;20272;-65
2022/12/02 05:57:16;;;;;;;6.00;5.50;;;;;;;;;;5138449;27;20238;-66
2022/12/02 05:59:44;;;;;;;6.00;5.50;;;;;;;;;;5137907;27;20194;-66
2022/12/02 06:02:21;;;;;;;6.43;5.82;;;;;;;;;;5136646;27;20200;-65
2022/12/02 06:04:49;;;;;;;6.10;5.60;;;;;;;;;;5116225;28;20222;-66
2022/12/02 06:07:16;;;;;;;5.95;5.45;;;;;;;;;;5115972;28;20199;-66
2022/12/02 06:09:45;;;;;;;5.72;5.22;;;;;;;;;;5116631;28;20210;-65
2022/12/02 06:12:14;;;;;;;6.50;5.90;;;;;;;;;;5116580;28;20224;-66
2022/12/02 06:14:45;;;;;;;5.97;5.47;;;;;;;;;;5115864;28;20198;-65
2022/12/02 06:17:14;;;;;;;5.40;4.90;;;;;;;;;;5115930;28;20594;-65
2022/12/02 06:19:44;;;;;;;6.03;5.53;;;;;;;;;;5115309;28;20203;-66
2022/12/02 06:22:14;;;;;;;5.70;5.20;;;;;;;;;;5115753;28;20209;-66
2022/12/02 06:24:42;;;;;;;6.30;5.70;;;;;;;;;;5115181;28;20231;-66
2022/12/02 06:27:13;;;;;;;5.57;5.07;;;;;;;;;;5116260;28;20199;-66
2022/12/02 06:29:43;;;;;;;6.28;5.68;;;;;;;;;;5115988;28;20213;-67
2022/12/02 06:32:13;;;;;;;5.88;5.38;;;;;;;;;;5115378;28;20210;-66
2022/12/02 06:34:42;;;;;;;6.03;5.28;;;;;;;;;;5135737;27;20194;-66
2022/12/02 06:37:14;;;;;;;5.88;5.28;;;;;;;;;;5135349;27;20198;-66
2022/12/02 06:39:41;;;;;;;6.63;5.65;;;;;;;;;;5135763;27;20600;-67
2022/12/02 06:42:16;;;;;;;6.15;5.55;;;;;;;;;;5136160;27;20202;-66
2022/12/02 06:47:50;;;;;;;6.10;5.60;;;;;;;;;;5135649;27;20193;-66
2022/12/02 06:50:25;;;;;;;6.38;5.80;;;;;;;;;;5135631;28;20203;-66
2022/12/02 06:52:53;;;;;;;6.30;5.70;;;;;;;;;;5135093;27;20186;-66
2022/12/02 06:55:28;;;;;;;7.65;5.68;;;;;;;;;;5135694;28;20604;-67
2022/12/02 06:57:57;;;;;;;5.85;5.25;;;;;;;;;;5135180;27;20193;-66
2022/12/02 07:00:27;;;;;;;6.18;5.60;;;;;;;;;;5135114;28;20690;-67
2022/12/02 07:02:54;;;;;;;6.15;5.28;;;;;;;;;;5134987;27;20616;-66
2022/12/02 07:05:22;;;;;;;5.85;5.22;;;;;;;;;;5126918;28;20228;-66
2022/12/02 07:07:50;;;;;;;6.38;5.00;;;;;;;;;;5136673;28;20690;-66
2022/12/02 07:10:20;;;;;;;6.40;5.80;;;;;;;;;;5136702;28;20206;-67
2022/12/02 07:12:48;;;;;;;6.22;5.63;;;;;;;;;;5135191;28;20589;-66
2022/12/02 07:15:23;;;;;;;5.88;5.30;;;;;;;;;;5136535;28;20198;-66
2022/12/02 07:17:51;;;;;;;5.82;5.32;;;;;;;;;;5135806;28;20202;-66
2022/12/02 07:20:25;;;;;;;5.75;5.15;;;;;;;;;;5135979;28;20212;-66
2022/12/02 07:22:56;;;;;;;5.50;5.00;;;;;;;;;;5131168;28;20245;-66
2022/12/02 07:25:35;;;;;;;5.50;4.95;;;;;;;;;;5127583;28;20222;-66
2022/12/02 07:28:03;;;;;;;5.57;4.85;;;;;;;;;;5135722;27;20198;-66
2022/12/02 07:30:32;;;;;;;5.25;4.85;;;;;;;;;;5135184;27;20255;-66
2022/12/02 07:33:01;;;;;;;5.95;4.80;;;;;;;;;;5135242;28;20186;-66
2022/12/02 07:35:29;;;;;;;5.47;4.97;;;;;;;;;;5138498;27;20228;-67
2022/12/02 07:37:57;;;;;;;5.50;5.00;;;;;;;;;;5139710;27;20228;-66
2022/12/02 07:40:24;;;;;;;5.32;4.82;;;;;;;;;;5137748;27;20203;-67
2022/12/02 07:42:52;;;;;;;5.28;4.88;;;;;;;;;;5128034;27;20206;-66
2022/12/02 07:45:20;;;;;;;5.78;5.00;;;;;;;;;;5139761;27;20599;-66
2022/12/02 07:47:47;;;;;;;5.13;4.70;;;;;;;;;;5139553;27;20198;-66
2022/12/02 07:50:16;;;;;;;5.38;4.75;;;;;;;;;;5138939;27;20213;-66
2022/12/02 07:52:44;;;;;;;5.13;4.72;;;;;;;;;;5138936;27;20202;-66
2022/12/02 07:55:11;;;;;;;5.78;5.25;;;;;;;;;;5139733;27;20205;-67
2022/12/02 07:57:39;;;;;;;5.15;4.75;;;;;;;;;;5139323;27;20202;-66
2022/12/02 08:00:07;;;;;;;5.10;4.60;;;;;;;;;;5136976;27;20555;-66
2022/12/02 08:02:34;;;;;;;5.20;4.80;;;;;;;;;;5139289;27;20581;-66
2022/12/02 08:05:02;;;;;;;5.00;4.55;;;;;;;;;;5139496;27;20223;-66
2022/12/02 08:07:31;;;;;;;5.05;4.65;;;;;;;;;;5138383;27;20574;-66
2022/12/02 08:09:58;;;;;;;5.30;4.80;;;;;;;;;;5139746;27;20507;-67
2022/12/02 08:12:25;;;;;;;4.80;4.40;;;;;;;;;;5138800;27;20195;-66
2022/12/02 08:14:53;;;;;;;5.00;4.60;;;;;;;;;;5138911;27;20205;-66
2022/12/02 08:17:21;;;;;;;5.78;4.32;;;;;;;;;;5137912;27;20198;-66
2022/12/02 08:19:48;;;;;;;5.78;4.50;;;;;;;;;;5139094;27;20202;-66
2022/12/02 08:22:15;;;;;;;5.35;4.95;;;;;;;;;;5138801;27;20198;-66
2022/12/02 08:24:44;;;;;;;4.65;4.25;;;;;;;;;;5138366;27;20234;-67
2022/12/02 08:27:11;;;;;;;4.97;4.57;;;;;;;;;;5138000;27;20229;-66
2022/12/02 08:29:39;;;;;;;5.07;4.60;;;;;;;;;;5138837;27;20242;-66
2022/12/02 08:32:07;;;;;;;5.30;4.85;;;;;;;;;;5137936;27;20195;-66
2022/12/02 08:34:34;;;;;;;5.10;4.60;;;;;;;;;;5138503;27;20194;-66
2022/12/02 08:37:01;;;;;;;5.22;4.80;;;;;;;;;;5139245;27;20198;-66
2022/12/02 08:39:29;;;;;;;5.20;4.70;;;;;;;;;;5137212;27;20224;-66
2022/12/02 08:41:58;;;;;;;5.07;4.57;;;;;;;;;;5138536;27;20206;-67
2022/12/02 08:44:25;;;;;;;5.03;4.47;;;;;;;;;;5138252;27;20689;-66
2022/12/02 08:46:52;;;;;;;4.63;4.22;;;;;;;;;;5137280;27;20202;-66
2022/12/02 08:49:20;;;;;;;5.10;4.70;;;;;;;;;;5137415;27;20207;-66
2022/12/02 08:51:47;;;;;;;4.85;4.45;;;;;;;;;;5138857;27;20198;-66
2022/12/02 08:54:15;;;;;;;4.85;4.45;;;;;;;;;;5138168;27;20210;-66
2022/12/02 08:56:42;;;;;;;5.00;4.60;;;;;;;;;;5138000;27;20228;-66
2022/12/02 08:59:11;;;;;;;5.30;4.80;;;;;;;;;;5137481;27;20204;-67
2022/12/02 09:01:38;;;;;;;5.03;4.63;;;;;;;;;;5137685;27;20194;-66
2022/12/02 09:04:06;;;;;;;4.93;4.50;;;;;;;;;;5137288;27;20277;-66
2022/12/02 09:06:33;;;;;;;5.18;4.78;;;;;;;;;;5137895;27;20614;-66
2022/12/02 09:09:01;;;;;;;34.00;29.98;;;;;;;;;;5135842;27;20245;-66
2022/12/02 09:11:28;;;;;;;30.45;27.15;;;;;;;;;;5136945;27;20268;-66
2022/12/02 09:13:56;;;;;;;25.90;23.10;;;;;;;;;;5137782;27;20198;-66
2022/12/02 09:16:24;;;;;;;24.17;21.27;;;;;;;;;;5137046;27;20202;-66
2022/12/02 09:18:54;;;;;;;23.00;20.55;;;;;;;;;;5130401;27;20262;-66
2022/12/02 09:21:22;;;;;;;22.80;20.40;;;;;;;;;;5115284;28;20199;-66
2022/12/02 09:23:49;;;;;;;22.38;19.25;;;;;;;;;;5116149;28;20238;-66
2022/12/02 09:26:18;;;;;;;29.35;26.35;;;;;;;;;;5127235;27;20226;-66
2022/12/02 09:28:45;;;;;;;56.63;51.17;;;;;;;;;;5136842;27;20609;-66
2022/12/02 09:31:13;;;;;;;49.90;45.00;;;;;;;;;;5136591;27;20224;-66
2022/12/02 09:33:42;;;;;;;45.05;40.60;;;;;;;;;;5137279;27;20301;-66
2022/12/02 09:36:10;;;;;;;43.33;39.17;;;;;;;;;;5137273;27;20190;-66
2022/12/02 09:38:38;;;;;;;41.70;37.70;;;;;;;;;;5136776;27;20209;-66
2022/12/02 09:41:05;;;;;;;40.80;37.03;;;;;;;;;;5137214;27;20205;-66
2022/12/02 09:43:32;;;;;;;39.67;35.78;;;;;;;;;;5137058;27;20523;-67
2022/12/02 09:46:00;;;;;;;38.80;35.00;;;;;;;;;;5136940;27;20222;-66
2022/12/02 09:48:28;;;;;;;36.70;33.10;;;;;;;;;;5136494;27;20194;-66
2022/12/02 09:50:58;;;;;;;35.28;31.90;;;;;;;;;;5136992;27;20210;-66
2022/12/02 09:53:30;;;;;;;34.83;31.42;;;;;;;;;;5136631;27;20202;-67
2022/12/02 09:55:57;;;;;;;33.42;30.23;;;;;;;;;;5136543;27;20241;-66
2022/12/02 09:58:26;;;;;;;32.38;29.30;;;;;;;;;;5135478;27;20564;-67
2022/12/02 10:00:54;;;;;;;31.63;28.55;;;;;;;;;;5136425;27;20604;-67
2022/12/02 10:03:23;;;;;;;30.17;27.23;;;;;;;;;;5136040;27;20199;-67
2022/12/02 10:05:51;;;;;;;28.55;25.85;;;;;;;;;;5136371;27;20232;-66
2022/12/02 10:08:20;;;;;;;28.40;25.70;;;;;;;;;;5135615;27;20198;-66
2022/12/02 10:10:48;;;;;;;27.75;25.05;;;;;;;;;;5135450;27;20198;-66
2022/12/02 10:13:16;;;;;;;27.70;25.00;;;;;;;;;;5135026;27;20195;-66
2022/12/02 10:15:44;;;;;;;25.98;23.38;;;;;;;;;;5136032;27;20604;-66
2022/12/02 10:18:16;;;;;;;25.42;23.10;;;;;;;;;;5135625;27;20801;-66
2022/12/02 10:20:43;;;;;;;26.60;24.13;;;;;;;;;;5136830;27;20297;-67
2022/12/02 10:23:12;;;;;;;99.72;89.63;;;;;;;;;;5135783;27;20237;-67
2022/12/02 10:25:42;;;;;;;76.50;68.70;;;;;;;;;;5136442;27;20237;-67
2022/12/02 10:28:22;;;;;;;67.10;60.40;;;;;;;;;;5134951;27;20558;-66
2022/12/02 10:30:51;;;;;;;65.00;58.47;;;;;;;;;;5135454;27;20202;-67
2022/12/02 10:33:18;;;;;;;62.70;56.47;;;;;;;;;;5135598;27;20314;-66
2022/12/02 10:35:47;;;;;;;60.15;54.00;;;;;;;;;;5136575;27;20565;-66
2022/12/02 10:38:31;;;;;;;57.08;51.33;;;;;;;;;;5135416;27;20193;-66
2022/12/02 10:41:13;;;;;;;53.63;48.40;;;;;;;;;;5135938;27;20208;-66
2022/12/02 10:43:41;;;;;;;52.80;47.47;;;;;;;;;;5135971;27;20210;-65
2022/12/02 10:46:08;;;;;;;50.70;45.70;;;;;;;;;;5135920;27;20218;-65
2022/12/02 10:48:35;;;;;;;48.63;43.65;;;;;;;;;;5134522;28;20743;-65
2022/12/02 10:51:03;;;;;;;46.00;41.53;;;;;;;;;;5135587;28;20202;-65
2022/12/02 10:53:31;;;;;;;44.72;40.35;;;;;;;;;;5136058;28;20198;-65
2022/12/02 10:55:58;;;;;;;42.42;38.22;;;;;;;;;;5134968;27;20194;-65
2022/12/02 10:58:28;;;;;;;41.58;37.45;;;;;;;;;;5134875;28;20225;-66
2022/12/02 11:00:56;;;;;;;40.05;36.15;;;;;;;;;;5135021;28;20194;-65
2022/12/02 11:03:23;;;;;;;36.92;33.33;;;;;;;;;;5135884;28;20202;-65
2022/12/02 11:05:51;;;;;;;37.22;33.53;;;;;;;;;;5135967;28;20677;-66
2022/12/02 11:08:20;;;;;;;36.03;32.53;;;;;;;;;;5134615;28;20202;-66
2022/12/02 11:10:49;;;;;;;34.13;30.83;;;;;;;;;;5138210;27;20198;-66
2022/12/02 11:13:49;;;;;;;32.70;29.60;;;;;;;;;;5138769;27;20202;-66
2022/12/02 11:16:40;;;;;;;31.35;28.38;;;;;;;;;;5139072;27;20213;-67
2022/12/02 11:19:24;;;;;;;30.05;27.17;;;;;;;;;;5117906;27;20205;-66
2022/12/02 11:21:51;;;;;;;28.50;25.60;;;;;;;;;;5139315;27;20292;-66
2022/12/02 11:24:36;;;;;;;28.20;25.40;;;;;;;;;;5140433;27;20241;-66
2022/12/02 11:27:09;;;;;;;26.38;23.77;;;;;;;;;;5138097;27;20600;-66
2022/12/02 11:29:39;;;;;;;25.80;23.45;;;;;;;;;;5138165;27;20198;-66
2022/12/02 11:32:17;;;;;;;25.27;22.80;;;;;;;;;;5138568;27;20209;-66
2022/12/02 11:34:46;;;;;;;27.88;25.17;;;;;;;;;;5138766;27;20225;-66
2022/12/02 11:37:33;;;;;;;25.95;23.50;;;;;;;;;;5139008;27;20194;-66
2022/12/02 11:40:01;;;;;;;24.75;22.55;;;;;;;;;;5136911;27;20219;-66
2022/12/02 11:42:30;;;;;;;25.00;22.70;;;;;;;;;;5137203;27;20211;-67
2022/12/02 11:45:13;;;;;;;24.65;22.30;;;;;;;;;;5139108;27;20211;-66
2022/12/02 11:47:41;;;;;;;24.10;21.75;;;;;;;;;;5138389;27;20503;-66
2022/12/02 11:50:26;;;;;;;23.98;21.60;;;;;;;;;;5137651;27;20205;-67
2022/12/02 11:52:54;;;;;;;22.73;20.52;;;;;;;;;;5137909;27;20209;-66
2022/12/02 11:55:24;;;;;;;23.35;20.98;;;;;;;;;;5138552;27;20205;-66
2022/12/02 11:57:52;;;;;;;22.33;20.33;;;;;;;;;;5137925;27;20203;-66
2022/12/02 12:00:25;;;;;;;22.13;19.92;;;;;;;;;;5137852;27;20212;-66
2022/12/02 12:03:06;;;;;;;20.77;18.83;;;;;;;;;;5138287;27;20208;-66
2022/12/02 12:05:33;;;;;;;20.85;18.83;;;;;;;;;;5138001;27;20298;-66
2022/12/02 12:08:01;;;;;;;20.55;18.67;;;;;;;;;;5137917;27;20202;-66
2022/12/02 12:10:30;;;;;;;19.50;17.70;;;;;;;;;;5138736;27;20628;-66
2022/12/02 12:13:18;;;;;;;18.38;16.63;;;;;;;;;;5140406;27;20202;-66
2022/12/02 12:15:54;;;;;;;17.55;15.95;;;;;;;;;;5159104;27;20241;-66
2022/12/02 12:18:40;;;;;;;18.00;16.30;;;;;;;;;;5154221;27;20221;-66
2022/12/02 12:21:07;;;;;;;17.73;16.02;;;;;;;;;;5136793;27;20475;-66
2022/12/02 12:23:36;;;;;;;16.95;15.32;;;;;;;;;;5137968;27;20261;-66
2022/12/02 12:26:04;;;;;;;16.77;15.23;;;;;;;;;;5137936;27;20222;-66
2022/12/02 12:28:32;;;;;;;15.60;14.20;;;;;;;;;;5137417;27;20187;-66
2022/12/02 12:31:01;;;;;;;16.42;14.82;;;;;;;;;;5137970;27;20611;-66
2022/12/02 12:33:29;;;;;;;16.50;14.93;;;;;;;;;;5137112;27;20208;-66
2022/12/02 12:35:57;;;;;;;15.00;13.63;;;;;;;;;;5137598;27;20510;-66
2022/12/02 12:38:26;;;;;;;14.93;13.52;;;;;;;;;;5132917;27;20195;-66
2022/12/02 12:40:54;;;;;;;15.00;13.57;;;;;;;;;;5133410;27;20203;-66
2022/12/02 12:43:22;;;;;;;14.57;13.18;;;;;;;;;;5138258;27;20202;-66
2022/12/02 12:45:49;;;;;;;14.48;13.07;;;;;;;;;;5138160;27;20610;-66
2022/12/02 12:48:18;;;;;;;14.27;12.95;;;;;;;;;;5133658;27;20218;-66
2022/12/02 12:50:45;;;;;;;14.02;12.73;;;;;;;;;;5132648;27;20236;-66
2022/12/02 12:53:13;;;;;;;14.20;12.88;;;;;;;;;;5137122;27;20198;-67
2022/12/02 12:55:40;;;;;;;13.60;12.30;;;;;;;;;;5136519;27;20200;-66
2022/12/02 12:58:07;;;;;;;13.48;12.27;;;;;;;;;;5136511;27;20226;-66
2022/12/02 13:00:35;;;;;;;13.18;11.98;;;;;;;;;;5136749;27;20201;-66
2022/12/02 13:03:03;;;;;;;13.13;11.93;;;;;;;;;;5136924;27;20716;-66
2022/12/02 13:05:31;;;;;;;14.02;12.63;;;;;;;;;;5136190;27;20194;-66
2022/12/02 13:07:59;;;;;;;12.77;11.57;;;;;;;;;;5135748;27;20210;-66
2022/12/02 13:10:26;;;;;;;12.45;11.30;;;;;;;;;;5136185;27;20225;-66
2022/12/02 13:12:54;;;;;;;12.13;11.07;;;;;;;;;;5136518;27;20194;-68
2022/12/02 13:15:21;;;;;;;12.32;11.20;;;;;;;;;;5136402;27;20224;-66
2022/12/02 13:17:49;;;;;;;12.57;11.35;;;;;;;;;;5136686;27;20686;-66
2022/12/02 13:20:16;;;;;;;12.43;11.32;;;;;;;;;;5134837;27;20202;-66
2022/12/02 13:22:45;;;;;;;12.20;11.00;;;;;;;;;;5136750;27;20220;-66
2022/12/02 13:25:13;;;;;;;12.18;11.07;;;;;;;;;;5136152;27;20213;-66
2022/12/02 13:27:41;;;;;;;12.25;11.02;;;;;;;;;;5135344;27;20226;-66
2022/12/02 13:30:11;;;;;;;11.57;10.48;;;;;;;;;;5135025;27;20190;-67
2022/12/02 13:32:38;;;;;;;11.88;10.68;;;;;;;;;;5136455;27;20331;-66
2022/12/02 13:35:06;;;;;;;11.20;10.20;;;;;;;;;;5136298;27;20198;-66
2022/12/02 13:37:34;;;;;;;11.07;10.00;;;;;;;;;;5136071;27;20199;-66
2022/12/02 13:40:03;;;;;;;11.60;10.55;;;;;;;;;;5134557;27;20220;-66
2022/12/02 13:42:30;;;;;;;11.35;10.25;;;;;;;;;;5136192;27;20198;-66
2022/12/02 13:44:58;;;;;;;11.45;10.32;;;;;;;;;;5136784;27;20194;-67
2022/12/02 13:47:25;;;;;;;11.50;10.40;;;;;;;;;;5135834;27;20214;-66
2022/12/02 13:49:53;;;;;;;11.23;10.18;;;;;;;;;;5136254;27;20596;-66
2022/12/02 13:52:20;;;;;;;11.57;10.35;;;;;;;;;;5136275;27;20206;-66
2022/12/02 13:54:48;;;;;;;11.10;10.02;;;;;;;;;;5136077;27;20204;-66
2022/12/02 13:57:17;;;;;;;11.32;10.32;;;;;;;;;;5134242;27;20194;-66
2022/12/02 13:59:44;;;;;;;11.48;10.38;;;;;;;;;;5136052;27;20213;-66
2022/12/02 14:02:12;;;;;;;11.15;10.05;;;;;;;;;;5135236;27;20202;-67
2022/12/02 14:04:40;;;;;;;10.90;9.90;;;;;;;;;;5135462;27;20209;-66
2022/12/02 14:07:07;;;;;;;11.10;10.07;;;;;;;;;;5135107;27;20332;-66
2022/12/02 14:09:34;;;;;;;10.57;9.57;;;;;;;;;;5133748;27;20198;-66
2022/12/02 14:12:02;;;;;;;11.45;10.35;;;;;;;;;;5134958;27;20271;-67
2022/12/02 14:14:31;;;;;;;10.82;9.82;;;;;;;;;;5136059;27;20213;-66
2022/12/02 14:16:58;;;;;;;11.02;10.02;;;;;;;;;;5135992;27;20195;-66
2022/12/02 14:19:25;;;;;;;11.23;10.02;;;;;;;;;;5134799;27;20216;-66
2022/12/02 14:21:53;;;;;;;11.32;10.25;;;;;;;;;;5135700;27;20206;-66
2022/12/02 14:24:20;;;;;;;10.60;9.60;;;;;;;;;;5135578;27;20268;-67
2022/12/02 14:26:48;;;;;;;10.60;9.70;;;;;;;;;;5135517;27;20229;-66
2022/12/02 14:29:15;;;;;;;11.23;10.13;;;;;;;;;;5134638;27;20509;-66
2022/12/02 14:31:44;;;;;;;10.95;9.85;;;;;;;;;;5134884;27;20233;-66
2022/12/02 14:34:12;;;;;;;10.75;9.65;;;;;;;;;;5136123;27;20205;-66
2022/12/02 14:36:39;;;;;;;11.45;10.35;;;;;;;;;;5135074;27;20190;-67
2022/12/02 14:39:07;;;;;;;10.73;9.68;;;;;;;;;;5134136;27;20190;-68
2022/12/02 14:41:34;;;;;;;11.10;10.00;;;;;;;;;;5135579;27;20194;-66
2022/12/02 14:44:01;;;;;;;10.68;9.68;;;;;;;;;;5134774;27;20233;-66
2022/12/02 14:46:29;;;;;;;10.52;9.52;;;;;;;;;;5135404;27;20728;-66